Kezdőlap
METAR-TAF:

METAR-TAF

Repülőterek :

Amami, Japán

földrajzi szélesség: 28-26N, földrajzi hosszúság: 129-43E, magasság: 4 m

Jelenlegi meteorológiai megfigyelések

A jelentés 23 perccel ezelõtt készült, 16:00 UTC
Kelet-délkeleti szél 8 kt
Hőmérséklet 30°C
Páratartalom 75%
Légköri nyomás 1013 hPa
Látótávolság 10 km, vagy több
Kevés felhő 2300 lábon

METAR: RJKA 161600Z AUTO 12008KT 9999 FEW023 30/25 Q1013

Idő: 01:23 (16:23 UTC)


TAF: hiányzik

Meteorológiai megfigyelések és előrejelzések több, mint 4000 repülőtéren (METAR és TAF jelentéseket).

A térképen piros és sárga pontok jelzik az elérhető meteorológiai állomásokat.

Mozgassa az egeret a pont fölött, hogy megjelenjen az állomás neve.

Azután kattintson az időjárási megfigyelések és előrejelzések megtekintéséhez.

A térkép megváltoztatása: kattintson a fekete keresztel jelölt zöld gombra ráközelítéshez, a vonallal jelölt zöld gombra távolításhoz, vagy a zöld nyilakra a szomszédos térképek eléréséhez.


METAR-TAF: